Wednesday, October 18, 2017, 5:57 PM EDT
Back to Local

KERI, Erie International Airport

Location: Erie, PA, United States Lat: 42.083
Local Time: 5:57 PM EDT (21:57 GMT) Lon: -80.183
Time Zone: US/Eastern Elev: 731 ft

Show me the last for .
Show Decoded

2017-10-18 16:51 METAR KERI 182051Z 20010KT 10SM CLR 21/06 A3019 RMK AO2 SLP222 T02110056 56016 =
2017-10-18 15:51 METAR KERI 181951Z 21010KT 10SM CLR 21/06 A3019 RMK AO2 SLP224 T02110056 =
2017-10-18 14:51 METAR KERI 181851Z AUTO 22011KT 10SM CLR 21/06 A3021 RMK AO2 SLP229 T02110056 =
2017-10-18 13:51 METAR KERI 181751Z 19010KT 10SM CLR 21/05 A3024 RMK AO2 SLP239 T02060050 10206
                 20094 58022 =
2017-10-18 12:51 METAR KERI 181651Z 20012G17KT 10SM CLR 19/06 A3028 RMK AO2 SLP254 T01940056 =
2017-10-18 11:51 METAR KERI 181551Z 20008KT 10SM CLR 18/06 A3030 RMK AO2 SLP261 T01830056 =
2017-10-18 10:51 METAR KERI 181451Z 19008KT 10SM CLR 17/06 A3030 RMK AO2 SLP262 T01670061 50006 =
2017-10-18 09:51 METAR KERI 181351Z 19009KT 10SM CLR 14/06 A3031 RMK AO2 SLP263 T01390056 =
2017-10-18 08:51 METAR KERI 181251Z 19008KT 10SM CLR 11/05 A3030 RMK AO2 SLP263 T01110050 =
2017-10-18 07:51 METAR KERI 181151Z 19006KT 10SM CLR 09/04 A3029 RMK AO2 SLP258 T00940044 10128
                 20094 51010 =
2017-10-18 06:51 METAR KERI 181051Z 19006KT 10SM CLR 10/04 A3028 RMK AO2 SLP256 T01000039 =
2017-10-18 05:51 METAR KERI 180951Z 19007KT 10SM CLR 11/04 A3027 RMK AO2 SLP251 T01060039 =
2017-10-18 04:51 METAR KERI 180851Z AUTO 19008KT 10SM CLR 11/04 A3026 RMK AO2 SLP246 T01110039
                 53004 =
2017-10-18 03:51 METAR KERI 180751Z AUTO 20009KT 10SM CLR 12/04 A3025 RMK AO2 SLP243 T01170039 =
2017-10-18 02:51 METAR KERI 180651Z AUTO 20009KT 10SM CLR 12/04 A3025 RMK AO2 SLP242 T01170039 =
2017-10-18 01:51 METAR KERI 180551Z AUTO 21009KT 10SM CLR 13/04 A3024 RMK AO2 SLP242 T01280039
                 10144 20122 53006 =
2017-10-18 00:51 METAR KERI 180451Z AUTO 21010KT 10SM CLR 13/04 A3024 RMK AO2 SLP239 T01280039
                 401830044 =
2017-10-17 23:51 METAR KERI 180351Z 20010KT 10SM CLR 13/04 A3023 RMK AO2 SLP238 T01330044 =
2017-10-17 22:51 METAR KERI 180251Z 21011KT 10SM CLR 14/04 A3023 RMK AO2 SLP237 T01390044 53016 =
2017-10-17 21:51 METAR KERI 180151Z 21011KT 10SM CLR 14/04 A3021 RMK AO2 SLP232 T01390044 =
2017-10-17 20:51 METAR KERI 180051Z 20011KT 10SM CLR 14/04 A3019 RMK AO2 SLP227 T01440044 =
2017-10-17 19:51 METAR KERI 172351Z 19012KT 10SM CLR 14/04 A3018 RMK AO2 SLP222 T01440039 10183
                 20144 53001 =
2017-10-17 18:51 METAR KERI 172251Z 19009KT 10SM CLR 16/04 A3017 RMK AO2 SLP217 T01560044 =

Support USWX by starting your Amazon purchase here.